ASN logo
ASN Wikibase Occurrence # 232848
Last updated: 9 February 2020
This information is added by users of ASN. Neither ASN nor the Flight Safety Foundation are responsible for the completeness or correctness of this information. If you feel this information is incomplete or incorrect, you can submit corrected information.

Date:30-JAN-2020
Time:00:25 LT
Type:Silhouette image of generic A306 model; specific model in this crash may look slightly different
Airbus A300C4-605R
Owner/operator:AeroUnion
Registration: XA-LFR
C/n / msn: 755
Fatalities:Fatalities: 0 / Occupants:
Other fatalities:0
Aircraft damage: Minor
Category:Serious incident
Location:Bogotá-Eldorado Airport (BOG/SKBO) -   Colombia
Phase: Landing
Nature:Cargo
Departure airport:Miami International Airport, FL (MIA/KMIA)
Destination airport:Bogotá-Eldorado Airport (BOG/SKBO)
Narrative:
Flight TPA4139, an Airbus A300C4-605R, suffered tire damage after landing on runway 13R at Bogota, Colombia.
The tires on the main landing gear wheels were punctured. A fire broke out on the main landing gear.

Metar (incident time was 0525Z):
SKBO 300500Z VRB02KT 9999 FEW017 SCT070 12/10 A3036 NOSIG
SKBO 300600Z VRB02KT 9999 FEW017 SCT070 12/11 A3035 NOSIG

Sources:

https://www.bea.aero/en/investigation-reports/notified-events/detail/event/feu-du-train-principal-lors-de-latterrissage/
https://www.flightradar24.com/data/aircraft/xa-lfr#23b21028


Revision history:

Date/timeContributorUpdates
09-Feb-2020 18:49 harro Added
09-Feb-2020 18:51 harro Updated [Location, Source, Narrative]

Corrections or additions? ... Edit this accident description